Time;durP1;ratioP1;P1;durP2;ratioP2;P2;SDS_P1;SDS_P2;PMS_P1;PMS_P2;Temp;Humidity;BMP_temperature;BMP_pressure;BME280_temperature;BME280_humidity;BME280_pressure;Samples;Min_cycle;Max_cycle;Signal;HPM_P1;HPM_P2
2020/12/30 00:01:20;;;;;;;;;77.50;61.25;;;;;;;;12582725;28;8963;-52
2020/12/30 00:07:22;;;;;;;;;77.00;62.25;;;;;;;;12581970;28;8885;-52
2020/12/30 00:13:23;;;;;;;;;76.50;61.75;;;;;;;;12581095;28;8837;-54
2020/12/30 00:19:25;;;;;;;;;81.25;63.00;;;;;;;;12581998;28;8873;-54
2020/12/30 00:25:27;;;;;;;;;83.50;65.75;;;;;;;;12580922;28;8841;-51
2020/12/30 00:31:30;;;;;;;;;82.00;62.25;;;;;;;;12579466;28;8837;-54
2020/12/30 00:37:31;;;;;;;;;82.00;64.00;;;;;;;;12573722;28;8857;-53
2020/12/30 00:43:33;;;;;;;;;77.25;61.00;;;;;;;;12578984;28;8978;-54
2020/12/30 00:49:35;;;;;;;;;79.00;62.25;;;;;;;;12561785;28;8949;-53
2020/12/30 00:55:38;;;;;;;;;73.00;62.00;;;;;;;;12579394;28;8833;-53
2020/12/30 01:01:56;;;;;;;;;83.50;63.25;;;;;;;;12555618;28;8856;-53
2020/12/30 01:08:11;;;;;;;;;74.00;60.50;;;;;;;;12560649;28;9716;-52
2020/12/30 01:14:12;;;;;;;;;81.25;59.75;;;;;;;;12577611;28;8834;-53
2020/12/30 01:20:13;;;;;;;;;73.50;60.75;;;;;;;;12579375;28;8834;-54
2020/12/30 01:26:15;;;;;;;;;78.75;60.75;;;;;;;;12577490;28;8866;-50
2020/12/30 01:32:17;;;;;;;;;74.75;61.00;;;;;;;;12577542;28;9651;-53
2020/12/30 01:38:18;;;;;;;;;79.50;61.50;;;;;;;;12577083;28;8968;-52
2020/12/30 01:44:19;;;;;;;;;72.25;59.00;;;;;;;;12577225;28;8838;-54
2020/12/30 01:50:21;;;;;;;;;79.50;61.75;;;;;;;;12577985;28;8834;-52
2020/12/30 01:56:25;;;;;;;;;74.50;59.50;;;;;;;;12576370;28;8873;-53
2020/12/30 02:02:28;;;;;;;;;82.00;64.25;;;;;;;;12576289;28;8846;-51
2020/12/30 02:08:31;;;;;;;;;71.75;58.50;;;;;;;;12569874;28;9586;-52
2020/12/30 02:14:32;;;;;;;;;75.00;59.75;;;;;;;;12576175;28;8830;-54
2020/12/30 02:20:34;;;;;;;;;75.25;62.25;;;;;;;;12578071;28;8842;-53
2020/12/30 02:26:35;;;;;;;;;78.75;62.00;;;;;;;;12576830;28;8853;-52
2020/12/30 02:32:37;;;;;;;;;83.75;64.25;;;;;;;;12576854;28;8861;-53
2020/12/30 02:38:38;;;;;;;;;82.75;65.25;;;;;;;;12576765;28;9587;-53
2020/12/30 02:44:40;;;;;;;;;72.75;60.00;;;;;;;;12575637;28;8838;-54
2020/12/30 02:50:41;;;;;;;;;73.75;60.00;;;;;;;;12584678;28;8842;-52
2020/12/30 02:56:42;;;;;;;;;80.50;63.00;;;;;;;;12584820;28;8857;-55
2020/12/30 03:02:44;;;;;;;;;78.25;61.25;;;;;;;;12583482;28;8857;-53
2020/12/30 03:08:45;;;;;;;;;70.50;59.25;;;;;;;;12584355;28;9614;-52
2020/12/30 03:14:47;;;;;;;;;77.50;63.00;;;;;;;;12584436;28;8842;-53
2020/12/30 03:20:48;;;;;;;;;74.00;61.00;;;;;;;;12584595;28;9470;-54
2020/12/30 03:26:50;;;;;;;;;74.50;59.75;;;;;;;;12582970;28;8858;-53
2020/12/30 03:32:51;;;;;;;;;76.00;62.25;;;;;;;;12582964;28;8849;-50
2020/12/30 03:38:54;;;;;;;;;73.50;57.50;;;;;;;;12583613;28;9618;-54
2020/12/30 03:44:55;;;;;;;;;75.75;61.00;;;;;;;;12581641;28;8868;-55
2020/12/30 03:50:56;;;;;;;;;72.25;58.00;;;;;;;;12582931;28;8837;-51
2020/12/30 03:56:58;;;;;;;;;71.25;56.75;;;;;;;;12581891;28;8868;-52
2020/12/30 04:02:59;;;;;;;;;72.25;58.50;;;;;;;;12580942;28;8841;-51
2020/12/30 04:09:00;;;;;;;;;70.50;56.75;;;;;;;;12581979;28;8833;-52
2020/12/30 04:15:02;;;;;;;;;75.75;60.00;;;;;;;;12580906;28;8834;-52
2020/12/30 04:21:04;;;;;;;;;75.00;60.00;;;;;;;;12581730;28;8830;-52
2020/12/30 04:27:05;;;;;;;;;75.50;58.50;;;;;;;;12579939;28;8864;-53
2020/12/30 04:33:07;;;;;;;;;80.50;63.50;;;;;;;;12579859;28;8821;-51
2020/12/30 04:39:09;;;;;;;;;77.50;60.50;;;;;;;;12581417;28;8822;-53
2020/12/30 04:45:10;;;;;;;;;81.00;64.25;;;;;;;;12579348;28;8837;-51
2020/12/30 04:51:13;;;;;;;;;74.00;60.50;;;;;;;;12579788;28;8838;-55
2020/12/30 04:57:22;;;;;;;;;72.50;58.50;;;;;;;;12578710;28;8834;-55
2020/12/30 05:03:32;;;;;;;;;74.25;61.75;;;;;;;;13012376;22;8855;-50
2020/12/30 05:09:35;;;;;;;;;89.75;68.50;;;;;;;;12565824;28;8837;-50
2020/12/30 05:15:37;;;;;;;;;95.00;74.00;;;;;;;;12573956;28;8845;-50
2020/12/30 05:21:38;;;;;;;;;74.67;62.00;;;;;;;;12567698;28;9622;-50
2020/12/30 05:27:40;;;;;;;;;89.00;70.67;;;;;;;;12568885;28;8836;-49
2020/12/30 05:33:41;;;;;;;;;86.50;69.00;;;;;;;;12575114;28;8988;-48
2020/12/30 05:39:43;;;;;;;;;93.75;69.25;;;;;;;;12572202;28;8842;-51
2020/12/30 05:45:55;;;;;;;;;90.00;68.67;;;;;;;;12566544;28;8855;-50
2020/12/30 05:51:58;;;;;;;;;89.75;68.00;;;;;;;;12565541;28;8976;-47
2020/12/30 05:58:02;;;;;;;;;88.33;67.67;;;;;;;;12548673;28;9288;-49
2020/12/30 06:04:19;;;;;;;;;86.00;68.67;;;;;;;;12567006;28;8858;-49
2020/12/30 06:10:23;;;;;;;;;92.67;71.33;;;;;;;;12560546;28;8867;-50
2020/12/30 06:16:29;;;;;;;;;92.33;70.33;;;;;;;;12563055;28;9558;-50
2020/12/30 06:22:31;;;;;;;;;86.00;68.33;;;;;;;;12564797;28;8910;-48
2020/12/30 06:28:32;;;;;;;;;86.00;66.67;;;;;;;;12578277;28;8841;-51
2020/12/30 06:34:36;;;;;;;;;91.50;71.00;;;;;;;;12576838;28;8845;-54
2020/12/30 06:40:37;;;;;;;;;90.75;70.00;;;;;;;;12574261;28;8855;-51
2020/12/30 06:46:38;;;;;;;;;95.67;73.33;;;;;;;;12576919;28;8858;-50
2020/12/30 06:52:40;;;;;;;;;92.00;71.33;;;;;;;;12572254;28;9569;-50
2020/12/30 06:58:43;;;;;;;;;86.00;68.33;;;;;;;;12572889;28;8884;-51
2020/12/30 07:05:00;;;;;;;;;87.00;71.33;;;;;;;;12568878;28;8874;-46
2020/12/30 07:11:01;;;;;;;;;89.33;69.67;;;;;;;;12571258;28;8865;-47
2020/12/30 07:17:04;;;;;;;;;92.00;73.33;;;;;;;;12576581;28;8868;-51
2020/12/30 07:23:10;;;;;;;;;92.50;72.00;;;;;;;;12574932;28;8960;-48
2020/12/30 07:29:14;;;;;;;;;92.00;71.33;;;;;;;;12573363;28;9637;-47
2020/12/30 07:35:15;;;;;;;;;90.00;70.67;;;;;;;;12575572;28;8854;-48
2020/12/30 07:41:24;;;;;;;;;88.00;71.00;;;;;;;;12576173;28;9618;-52
2020/12/30 07:47:28;;;;;;;;;88.33;68.67;;;;;;;;12569890;28;8842;-50
2020/12/30 07:53:29;;;;;;;;;86.00;69.75;;;;;;;;12567491;28;8857;-52
2020/12/30 07:59:34;;;;;;;;;88.50;69.00;;;;;;;;12567825;28;9565;-51
2020/12/30 08:05:43;;;;;;;;;84.50;66.00;;;;;;;;12549803;28;8856;-48
2020/12/30 08:11:53;;;;;;;;;83.50;66.75;;;;;;;;12547457;28;9660;-47
2020/12/30 08:17:58;;;;;;;;;90.00;70.00;;;;;;;;12560854;28;8861;-51
2020/12/30 08:24:19;;;;;;;;;86.25;67.00;;;;;;;;12551352;28;8857;-50
2020/12/30 08:30:21;;;;;;;;;84.25;67.00;;;;;;;;12567918;28;8857;-50
2020/12/30 08:36:30;;;;;;;;;87.00;67.00;;;;;;;;12567734;28;8838;-51
2020/12/30 08:42:53;;;;;;;;;78.00;64.00;;;;;;;;12562520;28;9618;-50
2020/12/30 08:48:58;;;;;;;;;87.00;67.75;;;;;;;;12570694;28;9654;-48
2020/12/30 08:55:02;;;;;;;;;82.50;65.00;;;;;;;;12562120;28;8845;-48
2020/12/30 09:01:19;;;;;;;;;85.00;68.00;;;;;;;;12567227;28;8876;-48
2020/12/30 09:07:24;;;;;;;;;95.25;75.25;;;;;;;;12572968;28;8907;-51
2020/12/30 09:13:30;;;;;;;;;83.50;65.25;;;;;;;;12557706;28;9763;-53
2020/12/30 09:19:32;;;;;;;;;82.00;67.00;;;;;;;;12560739;28;8914;-51
2020/12/30 09:25:36;;;;;;;;;88.50;68.25;;;;;;;;12571192;28;8941;-49
2020/12/30 09:31:37;;;;;;;;;86.75;66.25;;;;;;;;12574481;28;9630;-47
2020/12/30 09:37:40;;;;;;;;;76.75;60.75;;;;;;;;12572715;28;8869;-49
2020/12/30 09:43:46;;;;;;;;;78.25;61.00;;;;;;;;12568209;28;9645;-50
2020/12/30 09:49:47;;;;;;;;;76.25;61.50;;;;;;;;12575499;28;8846;-50
2020/12/30 09:55:52;;;;;;;;;79.00;64.00;;;;;;;;12574524;28;8856;-48
2020/12/30 10:01:54;;;;;;;;;76.50;60.50;;;;;;;;12572068;28;8918;-48
2020/12/30 10:07:55;;;;;;;;;74.50;57.75;;;;;;;;12575736;28;9641;-51
2020/12/30 10:13:57;;;;;;;;;75.00;60.00;;;;;;;;12575561;28;8853;-51
2020/12/30 10:19:58;;;;;;;;;82.25;63.75;;;;;;;;12584710;28;8830;-49
2020/12/30 10:26:00;;;;;;;;;79.50;63.25;;;;;;;;12573337;28;8834;-48
2020/12/30 10:32:01;;;;;;;;;75.50;58.25;;;;;;;;12573848;28;8968;-50
2020/12/30 10:38:02;;;;;;;;;82.75;65.00;;;;;;;;12576823;28;8830;-48
2020/12/30 10:44:04;;;;;;;;;78.25;62.75;;;;;;;;12573901;28;8944;-49
2020/12/30 10:50:11;;;;;;;;;80.75;64.00;;;;;;;;12578098;28;8877;-49
2020/12/30 10:56:13;;;;;;;;;80.00;63.00;;;;;;;;12573183;28;8840;-48
2020/12/30 11:02:15;;;;;;;;;79.50;64.50;;;;;;;;12575901;28;8892;-50
2020/12/30 11:08:19;;;;;;;;;84.00;67.25;;;;;;;;12576319;28;9613;-52
2020/12/30 11:14:20;;;;;;;;;84.00;66.25;;;;;;;;12579527;28;8861;-51
2020/12/30 11:20:21;;;;;;;;;88.25;70.50;;;;;;;;12580567;28;8884;-54
2020/12/30 11:26:23;;;;;;;;;81.50;63.25;;;;;;;;12574116;28;8827;-52
2020/12/30 11:32:24;;;;;;;;;86.75;69.00;;;;;;;;12578184;28;8973;-49
2020/12/30 11:38:27;;;;;;;;;85.50;68.50;;;;;;;;12578483;28;8842;-50
2020/12/30 11:44:29;;;;;;;;;85.75;68.50;;;;;;;;12577732;28;9629;-53
2020/12/30 11:50:35;;;;;;;;;72.50;59.00;;;;;;;;12580402;28;8842;-52
2020/12/30 11:56:36;;;;;;;;;78.25;62.00;;;;;;;;12565082;28;8839;-48
2020/12/30 12:02:37;;;;;;;;;81.50;64.25;;;;;;;;12567683;28;8830;-51
2020/12/30 12:08:39;;;;;;;;;76.25;62.25;;;;;;;;12569828;28;8849;-50
2020/12/30 12:14:41;;;;;;;;;83.00;63.75;;;;;;;;12562597;28;8864;-47
2020/12/30 12:20:42;;;;;;;;;78.75;63.00;;;;;;;;12576510;28;8845;-50
2020/12/30 12:26:44;;;;;;;;;81.25;63.50;;;;;;;;12563372;28;8835;-52
2020/12/30 12:32:45;;;;;;;;;78.25;64.00;;;;;;;;12570798;28;8845;-50
2020/12/30 12:38:47;;;;;;;;;82.00;64.50;;;;;;;;12570475;28;8834;-52
2020/12/30 12:44:49;;;;;;;;;81.50;63.75;;;;;;;;12565458;28;8848;-55
2020/12/30 12:50:51;;;;;;;;;81.75;64.50;;;;;;;;12572087;28;8859;-50
2020/12/30 12:57:01;;;;;;;;;77.25;63.00;;;;;;;;12570875;28;9654;-49
2020/12/30 13:03:03;;;;;;;;;81.75;66.50;;;;;;;;12572194;28;8857;-54
2020/12/30 13:09:05;;;;;;;;;80.50;64.75;;;;;;;;12570017;28;8837;-50
2020/12/30 13:15:06;;;;;;;;;79.50;63.00;;;;;;;;12567964;28;8841;-51
2020/12/30 13:21:08;;;;;;;;;81.50;62.50;;;;;;;;12573757;28;8876;-51
2020/12/30 13:27:10;;;;;;;;;75.50;59.25;;;;;;;;12571240;28;8971;-47
2020/12/30 13:33:12;;;;;;;;;79.00;62.25;;;;;;;;12572333;28;8878;-48
2020/12/30 13:39:14;;;;;;;;;76.50;59.50;;;;;;;;12564964;28;9005;-49
2020/12/30 13:45:16;;;;;;;;;72.25;58.25;;;;;;;;12569706;28;8850;-49
2020/12/30 13:51:18;;;;;;;;;73.50;59.00;;;;;;;;12574891;28;8869;-50
2020/12/30 13:57:19;;;;;;;;;77.25;59.75;;;;;;;;12566463;28;8843;-49
2020/12/30 14:03:21;;;;;;;;;69.25;57.50;;;;;;;;12567280;28;8861;-48
2020/12/30 14:09:22;;;;;;;;;73.00;59.50;;;;;;;;12564551;28;8873;-48
2020/12/30 14:15:23;;;;;;;;;75.00;61.25;;;;;;;;12565401;28;8925;-55
2020/12/30 14:21:25;;;;;;;;;76.75;60.25;;;;;;;;12567596;28;9667;-49
2020/12/30 14:27:26;;;;;;;;;75.75;60.00;;;;;;;;12559608;28;9642;-47
2020/12/30 14:33:31;;;;;;;;;72.50;59.75;;;;;;;;12559378;28;8910;-50
2020/12/30 14:39:33;;;;;;;;;75.75;59.00;;;;;;;;12565934;28;9653;-48
2020/12/30 14:45:34;;;;;;;;;78.25;59.75;;;;;;;;12576439;28;8944;-52
2020/12/30 14:51:36;;;;;;;;;73.25;59.50;;;;;;;;12577823;28;8860;-50
2020/12/30 14:57:37;;;;;;;;;71.75;60.00;;;;;;;;12570544;28;8894;-52
2020/12/30 15:03:38;;;;;;;;;79.25;63.50;;;;;;;;12576528;28;8857;-49
2020/12/30 15:09:40;;;;;;;;;86.75;65.25;;;;;;;;12577116;28;8851;-52
2020/12/30 15:15:41;;;;;;;;;85.00;66.00;;;;;;;;12577026;28;9228;-51
2020/12/30 15:21:42;;;;;;;;;84.75;64.50;;;;;;;;12578156;28;8860;-48
2020/12/30 15:27:44;;;;;;;;;86.75;67.25;;;;;;;;12572423;28;8982;-49
2020/12/30 15:33:45;;;;;;;;;84.75;66.50;;;;;;;;12561101;28;9646;-52
2020/12/30 15:39:47;;;;;;;;;87.25;69.00;;;;;;;;12578422;28;8859;-51
2020/12/30 15:45:50;;;;;;;;;87.50;66.00;;;;;;;;12578188;28;9598;-53
2020/12/30 15:51:54;;;;;;;;;88.25;68.25;;;;;;;;12578282;28;8905;-51
2020/12/30 15:57:55;;;;;;;;;96.25;77.50;;;;;;;;12574413;28;8851;-47
2020/12/30 16:03:57;;;;;;;;;90.75;73.25;;;;;;;;12569165;28;8903;-50
2020/12/30 16:09:58;;;;;;;;;96.25;83.75;;;;;;;;12568527;28;8846;-47
2020/12/30 16:16:00;;;;;;;;;93.25;72.50;;;;;;;;12565572;28;8873;-48
2020/12/30 16:22:02;;;;;;;;;101.67;91.33;;;;;;;;12571314;28;8861;-48
2020/12/30 16:28:06;;;;;;;;;98.00;83.00;;;;;;;;12567366;28;8829;-52
2020/12/30 16:34:08;;;;;;;;;99.67;85.00;;;;;;;;12570753;28;8829;-48
2020/12/30 16:40:09;;;;;;;;;102.00;93.00;;;;;;;;12567878;28;8831;-49
2020/12/30 16:46:11;;;;;;;;;102.00;88.67;;;;;;;;12567438;28;8830;-49
2020/12/30 16:52:12;;;;;;;;;101.33;86.00;;;;;;;;12571387;28;8829;-50
2020/12/30 16:58:14;;;;;;;;;95.25;80.00;;;;;;;;12569132;28;8830;-50
2020/12/30 17:04:16;;;;;;;;;94.25;80.75;;;;;;;;12569118;28;8871;-51
2020/12/30 17:10:17;;;;;;;;;102.33;86.33;;;;;;;;12569243;28;8847;-51
2020/12/30 17:16:18;;;;;;;;;101.33;91.67;;;;;;;;12569654;28;8834;-48
2020/12/30 17:22:20;;;;;;;;;102.33;90.67;;;;;;;;12571565;28;8822;-50
2020/12/30 17:28:21;;;;;;;;;102.67;97.33;;;;;;;;12570630;28;8930;-49
2020/12/30 17:34:26;;;;;;;;;100.67;89.33;;;;;;;;12572100;28;8949;-50
2020/12/30 17:40:28;;;;;;;;;98.00;84.00;;;;;;;;12569429;28;8962;-47
2020/12/30 17:46:29;;;;;;;;;100.67;89.33;;;;;;;;12571607;28;9320;-50
2020/12/30 17:52:31;;;;;;;;;101.67;89.00;;;;;;;;12572952;28;9488;-48
2020/12/30 17:58:33;;;;;;;;;95.75;79.50;;;;;;;;12573874;28;8993;-48
2020/12/30 18:04:34;;;;;;;;;88.25;68.25;;;;;;;;12564887;28;9675;-46
2020/12/30 18:10:36;;;;;;;;;93.25;70.25;;;;;;;;12562708;28;8831;-52
2020/12/30 18:16:39;;;;;;;;;90.50;76.00;;;;;;;;12566635;28;8826;-50
2020/12/30 18:22:41;;;;;;;;;92.25;69.75;;;;;;;;12576053;28;8861;-49
2020/12/30 18:28:42;;;;;;;;;85.50;67.00;;;;;;;;12569994;28;8852;-52
2020/12/30 18:34:46;;;;;;;;;93.25;72.00;;;;;;;;12575706;28;8872;-49
2020/12/30 18:40:48;;;;;;;;;96.00;77.00;;;;;;;;12574352;28;8833;-47
2020/12/30 18:46:50;;;;;;;;;116.33;105.33;;;;;;;;12576370;28;8830;-48
2020/12/30 18:52:52;;;;;;;;;113.67;104.67;;;;;;;;12575924;28;8841;-51
2020/12/30 18:58:54;;;;;;;;;120.67;109.33;;;;;;;;12571904;28;8838;-51
2020/12/30 19:04:56;;;;;;;;;148.67;132.67;;;;;;;;12575923;28;8841;-47
2020/12/30 19:10:57;;;;;;;;;151.00;131.67;;;;;;;;12576689;28;8891;-52
2020/12/30 19:17:02;;;;;;;;;150.67;131.00;;;;;;;;12576455;28;8846;-50
2020/12/30 19:23:03;;;;;;;;;143.33;124.33;;;;;;;;12575469;28;8842;-47
2020/12/30 19:29:05;;;;;;;;;155.33;135.00;;;;;;;;12573401;28;8846;-50
2020/12/30 19:35:06;;;;;;;;;135.75;124.25;;;;;;;;12577599;28;8846;-50
2020/12/30 19:41:08;;;;;;;;;133.33;118.00;;;;;;;;12578220;28;8818;-51
2020/12/30 19:47:09;;;;;;;;;120.67;113.67;;;;;;;;12577684;28;8830;-47
2020/12/30 19:53:10;;;;;;;;;135.00;124.67;;;;;;;;12576188;28;8849;-55
2020/12/30 19:59:12;;;;;;;;;127.33;117.67;;;;;;;;12576595;28;8850;-51
2020/12/30 20:05:14;;;;;;;;;104.00;88.33;;;;;;;;12577170;28;8857;-52
2020/12/30 20:11:18;;;;;;;;;113.67;105.67;;;;;;;;12578577;28;8848;-51
2020/12/30 20:17:19;;;;;;;;;120.67;110.00;;;;;;;;12568862;28;8948;-49
2020/12/30 20:23:27;;;;;;;;;113.00;106.00;;;;;;;;12566883;28;8836;-47
2020/12/30 20:29:28;;;;;;;;;116.67;104.00;;;;;;;;12569863;28;9590;-48
2020/12/30 20:35:30;;;;;;;;;119.67;112.00;;;;;;;;12569101;28;8872;-48
2020/12/30 20:41:31;;;;;;;;;106.67;93.67;;;;;;;;12564579;28;8832;-48
2020/12/30 20:47:32;;;;;;;;;124.67;116.00;;;;;;;;12562790;28;8906;-48
2020/12/30 20:53:34;;;;;;;;;121.33;107.00;;;;;;;;12562154;28;8923;-50
2020/12/30 20:59:35;;;;;;;;;124.00;109.67;;;;;;;;12571820;28;8848;-48
2020/12/30 21:05:38;;;;;;;;;124.67;112.67;;;;;;;;12569550;28;8888;-50
2020/12/30 21:11:40;;;;;;;;;131.67;116.33;;;;;;;;12554317;28;8855;-50
2020/12/30 21:17:41;;;;;;;;;123.00;115.33;;;;;;;;12571255;28;9691;-49
2020/12/30 21:23:43;;;;;;;;;121.67;111.67;;;;;;;;12568718;28;8863;-47
2020/12/30 21:29:44;;;;;;;;;123.33;113.67;;;;;;;;12573386;28;9976;-47
2020/12/30 21:35:46;;;;;;;;;122.33;110.00;;;;;;;;12571150;28;8864;-47
2020/12/30 21:41:50;;;;;;;;;117.33;109.00;;;;;;;;12568314;28;8836;-48
2020/12/30 21:47:51;;;;;;;;;121.00;110.00;;;;;;;;12572087;28;8837;-49
2020/12/30 21:53:52;;;;;;;;;126.33;112.33;;;;;;;;12571241;28;8853;-52
2020/12/30 21:59:54;;;;;;;;;118.67;103.67;;;;;;;;12574008;28;8830;-48
2020/12/30 22:05:55;;;;;;;;;110.67;101.00;;;;;;;;12571684;28;8869;-53
2020/12/30 22:11:58;;;;;;;;;105.00;95.67;;;;;;;;12570307;28;8834;-50
2020/12/30 22:18:00;;;;;;;;;105.00;94.67;;;;;;;;12573199;28;8833;-50
2020/12/30 22:24:01;;;;;;;;;105.67;87.00;;;;;;;;12561534;28;8840;-48
2020/12/30 22:30:03;;;;;;;;;106.33;88.67;;;;;;;;12562914;28;8857;-47
2020/12/30 22:36:05;;;;;;;;;102.67;85.00;;;;;;;;12565975;28;8841;-50
2020/12/30 22:42:06;;;;;;;;;104.33;89.67;;;;;;;;12545475;28;8865;-47
2020/12/30 22:48:08;;;;;;;;;102.00;84.67;;;;;;;;12548626;28;8834;-50
2020/12/30 22:54:09;;;;;;;;;97.00;75.00;;;;;;;;12562774;28;8832;-49
2020/12/30 23:00:12;;;;;;;;;101.00;81.33;;;;;;;;12550416;28;8830;-46
2020/12/30 23:06:13;;;;;;;;;96.00;78.00;;;;;;;;12573025;28;8841;-47
2020/12/30 23:12:16;;;;;;;;;95.00;75.33;;;;;;;;12574043;28;8853;-46
2020/12/30 23:18:21;;;;;;;;;98.67;80.00;;;;;;;;12575184;28;8842;-47
2020/12/30 23:24:23;;;;;;;;;93.00;73.67;;;;;;;;12571853;28;8840;-49
2020/12/30 23:30:24;;;;;;;;;95.00;77.00;;;;;;;;12559832;28;8864;-47
2020/12/30 23:36:26;;;;;;;;;91.67;72.00;;;;;;;;12576116;28;8848;-48
2020/12/30 23:42:27;;;;;;;;;89.00;71.33;;;;;;;;12577440;28;8834;-50
2020/12/30 23:48:29;;;;;;;;;90.00;72.00;;;;;;;;12577118;28;9427;-50
2020/12/30 23:54:30;;;;;;;;;90.67;68.67;;;;;;;;12572566;28;8828;-48
